createdAt,value
2022-07-25T00:00:48.698Z,73.78
2022-07-25T00:01:48.852Z,73.88
2022-07-25T00:02:48.669Z,73.65
2022-07-25T00:03:48.790Z,73.05
2022-07-25T00:04:48.718Z,73.74
2022-07-25T00:05:48.622Z,73.65
2022-07-25T00:06:48.627Z,72.85
2022-07-25T00:07:48.591Z,73.14
2022-07-25T00:08:48.598Z,73.05
2022-07-25T00:09:48.563Z,73.14
2022-07-25T00:10:48.554Z,73.05
2022-07-25T00:11:48.536Z,73.05
2022-07-25T00:12:48.525Z,73.35
2022-07-25T00:13:48.522Z,73.25
2022-07-25T00:14:48.485Z,73.35
2022-07-25T00:15:48.581Z,73.14
2022-07-25T00:16:48.459Z,72.85
2022-07-25T00:17:48.446Z,72.65
2022-07-25T00:18:48.491Z,72.85
2022-07-25T00:19:48.411Z,72.95
2022-07-25T00:20:48.397Z,73.25
2022-07-25T00:21:48.481Z,73.05
2022-07-25T00:22:48.380Z,73.25
2022-07-25T00:23:48.376Z,73.05
2022-07-25T00:24:48.354Z,72.85
2022-07-25T00:25:48.324Z,73.25
2022-07-25T00:26:48.308Z,73.05
2022-07-25T00:27:48.289Z,73.25
2022-07-25T00:28:48.279Z,72.65
2022-07-25T00:29:48.280Z,72.45
2022-07-25T00:30:48.343Z,72.25
2022-07-25T00:31:48.260Z,72.15
2022-07-25T00:32:48.218Z,72.25
2022-07-25T00:33:48.211Z,72.45
2022-07-25T00:34:48.189Z,71.85
2022-07-25T00:35:48.198Z,71.55
2022-07-25T00:36:48.167Z,71.02
2022-07-25T00:37:48.147Z,70.92
2022-07-25T00:38:48.135Z,70.82
2022-07-25T00:39:48.115Z,71.05
2022-07-25T00:40:54.703Z,70.62
2022-07-25T00:41:48.105Z,70.86
2022-07-25T00:42:48.067Z,70.52
2022-07-25T00:43:48.058Z,70.75
2022-07-25T00:44:48.042Z,71.15
2022-07-25T00:45:48.039Z,70.82
2022-07-25T00:46:48.029Z,71.35
2022-07-25T00:47:48.014Z,72.15
2022-07-25T00:48:48.089Z,72.05
2022-07-25T00:49:47.970Z,72.45
2022-07-25T00:50:47.955Z,72.15
2022-07-25T00:51:47.945Z,72.15
2022-07-25T00:52:47.945Z,71.65
2022-07-25T00:53:47.914Z,72.38
2022-07-25T00:54:47.907Z,72.15
2022-07-25T00:55:47.883Z,72.28
2022-07-25T00:56:47.885Z,72.55
2022-07-25T00:57:47.850Z,71.55
2022-07-25T00:58:47.848Z,72.28
2022-07-25T00:59:47.817Z,72.25
2022-07-25T01:00:47.806Z,71.98
2022-07-25T01:01:48.198Z,72.49
2022-07-25T01:02:47.844Z,73.18
2022-07-25T01:03:47.755Z,73.18
2022-07-25T01:04:47.745Z,72.19
2022-07-25T01:05:53.107Z,73.18
2022-07-25T01:06:47.716Z,72.88
2022-07-25T01:07:47.700Z,73.22
2022-07-25T01:08:47.704Z,73.82
2022-07-25T01:09:47.688Z,74.02
2022-07-25T01:10:47.657Z,74.02
2022-07-25T01:11:47.642Z,73.52
2022-07-25T01:12:47.623Z,74.32
2022-07-25T01:13:47.607Z,73.95
2022-07-25T01:14:47.618Z,74.15
2022-07-25T01:15:47.631Z,74.35
2022-07-25T01:16:47.566Z,74.41
2022-07-25T01:17:47.555Z,73.75
2022-07-25T01:18:47.563Z,74.25
2022-07-25T01:19:47.538Z,73.95
2022-07-25T01:20:47.520Z,74.45
2022-07-25T01:21:47.487Z,74.45
2022-07-25T01:22:47.530Z,74.45
2022-07-25T01:23:47.470Z,75.25
2022-07-25T01:24:47.445Z,74.05
2022-07-25T01:25:47.432Z,74.45
2022-07-25T01:26:47.416Z,74.68
2022-07-25T01:27:52.794Z,74.15
2022-07-25T01:28:47.404Z,74.55
2022-07-25T01:29:47.371Z,74.15
2022-07-25T01:30:47.429Z,74.15
2022-07-25T01:31:47.357Z,74.15
2022-07-25T01:32:47.347Z,73.85
2022-07-25T01:33:47.311Z,74.55
2022-07-25T01:34:47.314Z,74.51
2022-07-25T01:35:47.292Z,73.52
2022-07-25T01:36:47.277Z,74.65
2022-07-25T01:37:47.266Z,74.11
2022-07-25T01:38:47.233Z,74.15
2022-07-25T01:39:47.226Z,74.25
2022-07-25T01:40:47.203Z,74.58
2022-07-25T01:41:47.208Z,74.19
2022-07-25T01:42:47.187Z,74.15
2022-07-25T01:43:47.157Z,74.25
2022-07-25T01:44:47.138Z,74.35
2022-07-25T01:45:47.193Z,74.25
2022-07-25T01:46:47.177Z,74.55
2022-07-25T01:47:47.097Z,74.25
2022-07-25T01:48:47.167Z,73.95
2022-07-25T01:49:47.071Z,73.99
2022-07-25T01:50:47.052Z,74.08
2022-07-25T01:51:47.070Z,74.49
2022-07-25T01:52:47.023Z,74.79
2022-07-25T01:53:47.020Z,74.58
2022-07-25T01:54:46.992Z,74.49
2022-07-25T01:55:46.975Z,74.88
2022-07-25T01:56:48.243Z,74.98
2022-07-25T01:57:50.046Z,74.49
2022-07-25T01:58:46.931Z,74.58
2022-07-25T01:59:46.917Z,74.38
2022-07-25T02:00:46.924Z,74.68
2022-07-25T02:01:46.932Z,74.58
2022-07-25T02:02:46.863Z,74.88
2022-07-25T02:03:48.936Z,74.79
2022-07-25T02:04:46.966Z,74.68
2022-07-25T02:05:46.864Z,74.68
2022-07-25T02:06:46.806Z,74.79
2022-07-25T02:07:46.797Z,74.88
2022-07-25T02:08:46.782Z,73.99
2022-07-25T02:09:46.775Z,74.68
2022-07-25T02:10:46.769Z,74.58
2022-07-25T02:11:46.730Z,74.35
2022-07-25T02:12:46.721Z,73.99
2022-07-25T02:13:46.704Z,74.29
2022-07-25T02:14:46.694Z,74.72
2022-07-25T02:15:46.686Z,74.49
2022-07-25T02:16:46.702Z,75.12
2022-07-25T02:17:46.639Z,74.38
2022-07-25T02:18:46.632Z,74.42
2022-07-25T02:19:46.608Z,75.02
2022-07-25T02:20:46.611Z,74.52
2022-07-25T02:21:46.575Z,75.02
2022-07-25T02:22:46.563Z,74.42
2022-07-25T02:23:46.564Z,74.22
2022-07-25T02:24:46.534Z,74.58
2022-07-25T02:25:46.512Z,74.08
2022-07-25T02:26:46.501Z,74.62
2022-07-25T02:27:46.498Z,74.32
2022-07-25T02:28:46.471Z,73.39
2022-07-25T02:29:46.456Z,73.99
2022-07-25T02:30:46.527Z,74.38
2022-07-25T02:31:46.452Z,73.42
2022-07-25T02:32:46.409Z,73.32
2022-07-25T02:33:46.397Z,74.12
2022-07-25T02:34:46.377Z,74.62
2022-07-25T02:35:46.362Z,74.02
2022-07-25T02:36:46.348Z,74.22
2022-07-25T02:37:46.349Z,74.32
2022-07-25T02:38:46.320Z,74.02
2022-07-25T02:39:46.299Z,73.99
2022-07-25T02:40:46.285Z,73.19
2022-07-25T02:41:46.281Z,73.49
2022-07-25T02:42:46.274Z,73.28
2022-07-25T02:43:46.241Z,73.42
2022-07-25T02:44:46.247Z,73.28
2022-07-25T02:45:46.268Z,73.39
2022-07-25T02:46:46.197Z,73.19
2022-07-25T02:47:46.185Z,73.22
2022-07-25T02:48:46.205Z,72.99
2022-07-25T02:49:46.161Z,73.09
2022-07-25T02:50:46.128Z,72.72
2022-07-25T02:51:46.115Z,73.09
2022-07-25T02:52:46.097Z,72.52
2022-07-25T02:53:57.108Z,72.39
2022-07-25T02:54:46.084Z,72.52
2022-07-25T02:55:46.089Z,72.42
2022-07-25T02:56:46.037Z,72.59
2022-07-25T02:57:46.023Z,72.82
2022-07-25T02:58:46.008Z,72.02
2022-07-25T02:59:46.009Z,72.92
2022-07-25T03:00:45.979Z,73.32
2022-07-25T03:01:46.036Z,73.22
2022-07-25T03:02:45.947Z,73.16
2022-07-25T03:03:46.030Z,74.26
2022-07-25T03:04:45.914Z,74.46
2022-07-25T03:05:45.927Z,74.39
2022-07-25T03:06:45.886Z,74.29
2022-07-25T03:07:45.871Z,74.39
2022-07-25T03:08:45.869Z,74.39
2022-07-25T03:09:45.837Z,74.49
2022-07-25T03:10:45.824Z,74.49
2022-07-25T03:11:45.827Z,74.29
2022-07-25T03:12:45.793Z,74.49
2022-07-25T03:13:45.774Z,73.69
2022-07-25T03:14:45.763Z,74.19
2022-07-25T03:15:45.755Z,74.29
2022-07-25T03:16:45.779Z,74.29
2022-07-25T03:17:45.717Z,74.66
2022-07-25T03:18:45.701Z,74.39
2022-07-25T03:19:45.683Z,74.96
2022-07-25T03:20:45.668Z,73.06
2022-07-25T03:21:45.651Z,74.05
2022-07-25T03:22:45.652Z,73.16
2022-07-25T03:23:50.457Z,74.05
2022-07-25T03:24:45.605Z,73.56
2022-07-25T03:25:45.602Z,72.96
2022-07-25T03:26:45.578Z,73.46
2022-07-25T03:27:45.577Z,73.46
2022-07-25T03:28:45.545Z,73.56
2022-07-25T03:29:45.528Z,73.25
2022-07-25T03:30:45.519Z,73.25
2022-07-25T03:31:45.528Z,72.66
2022-07-25T03:32:45.498Z,72.36
2022-07-25T03:33:45.486Z,72.16
2022-07-25T03:34:45.466Z,72.56
2022-07-25T03:35:45.431Z,72.76
2022-07-25T03:36:45.414Z,72.56
2022-07-25T03:37:45.408Z,72.32
2022-07-25T03:38:45.386Z,72.66
2022-07-25T03:39:45.388Z,72.66
2022-07-25T03:40:45.351Z,71.96
2022-07-25T03:41:45.334Z,71.76
2022-07-25T03:42:45.319Z,71.52
2022-07-25T03:43:45.322Z,71.33
2022-07-25T03:44:45.291Z,71.42
2022-07-25T03:45:45.342Z,71.33
2022-07-25T03:46:45.256Z,71.03
2022-07-25T03:47:45.247Z,71.03
2022-07-25T03:48:45.332Z,70.92
2022-07-25T03:49:45.242Z,70.86
2022-07-25T03:50:45.212Z,71.03
2022-07-25T03:51:45.180Z,71.12
2022-07-25T03:52:45.161Z,71.36
2022-07-25T03:53:45.148Z,70.96
2022-07-25T03:54:45.137Z,70.96
2022-07-25T03:55:45.133Z,71.26
2022-07-25T03:56:45.106Z,70.96
2022-07-25T03:57:45.093Z,70.96
2022-07-25T03:58:45.070Z,71.33
2022-07-25T03:59:45.053Z,71.16
2022-07-25T04:00:45.106Z,71.06
2022-07-25T04:01:45.025Z,70.36
2022-07-25T04:02:45.097Z,70.66
2022-07-25T04:03:45.025Z,70.72
2022-07-25T04:04:44.984Z,70.23
2022-07-25T04:05:47.553Z,70.62
2022-07-25T04:06:44.967Z,70.32
2022-07-25T04:07:44.931Z,70.12
2022-07-25T04:08:44.928Z,70.12
2022-07-25T04:09:44.906Z,70.03
2022-07-25T04:10:44.886Z,70.23
2022-07-25T04:11:44.883Z,69.93
2022-07-25T04:12:44.869Z,69.62
2022-07-25T04:13:44.843Z,69.82
2022-07-25T04:14:44.828Z,70.03
2022-07-25T04:15:44.809Z,69.53
2022-07-25T04:16:44.825Z,69.53
2022-07-25T04:17:44.793Z,69.82
2022-07-25T04:18:44.755Z,69.73
2022-07-25T04:19:44.741Z,69.39
2022-07-25T04:20:44.723Z,69.39
2022-07-25T04:21:44.713Z,70.19
2022-07-25T04:22:46.891Z,69.23
2022-07-25T04:23:44.680Z,69.09
2022-07-25T04:24:44.663Z,69.20
2022-07-25T04:25:44.648Z,69.29
2022-07-25T04:26:44.630Z,69.39
2022-07-25T04:27:44.621Z,69.26
2022-07-25T04:28:44.659Z,68.56
2022-07-25T04:29:44.586Z,68.66
2022-07-25T04:30:44.570Z,69.06
2022-07-25T04:31:44.625Z,68.66
2022-07-25T04:32:44.541Z,68.86
2022-07-25T04:33:51.087Z,68.76
2022-07-25T04:34:44.534Z,68.86
2022-07-25T04:35:44.487Z,68.76
2022-07-25T04:36:44.494Z,68.66
2022-07-25T04:37:44.459Z,68.86
2022-07-25T04:38:44.456Z,68.93
2022-07-25T04:39:44.448Z,68.86
2022-07-25T04:40:44.413Z,68.46
2022-07-25T04:41:44.411Z,68.66
2022-07-25T04:42:46.493Z,68.46
2022-07-25T04:43:48.462Z,67.93
2022-07-25T04:44:44.356Z,67.63
2022-07-25T04:45:44.385Z,67.63
2022-07-25T04:46:44.327Z,67.63
2022-07-25T04:47:44.305Z,67.83
2022-07-25T04:48:46.420Z,67.83
2022-07-25T04:49:44.295Z,67.33
2022-07-25T04:50:44.285Z,67.43
2022-07-25T04:51:44.245Z,67.63
2022-07-25T04:52:44.237Z,67.43
2022-07-25T04:53:44.220Z,67.03
2022-07-25T04:54:44.207Z,66.73
2022-07-25T04:55:44.185Z,66.73
2022-07-25T04:56:45.572Z,67.10
2022-07-25T04:57:44.154Z,66.70
2022-07-25T04:58:44.151Z,66.70
2022-07-25T04:59:44.129Z,66.80
2022-07-25T05:00:44.148Z,65.91
2022-07-25T05:01:44.157Z,66.00
2022-07-25T05:02:44.114Z,65.91
2022-07-25T05:03:49.806Z,65.80
2022-07-25T05:04:45.537Z,65.80
2022-07-25T05:05:44.058Z,65.70
2022-07-25T05:06:44.022Z,65.70
2022-07-25T05:07:44.030Z,65.31
2022-07-25T05:08:43.994Z,65.70
2022-07-25T05:09:44.001Z,65.50
2022-07-25T05:10:43.965Z,65.80
2022-07-25T05:11:47.415Z,65.70
2022-07-25T05:12:43.935Z,65.61
2022-07-25T05:13:43.915Z,65.70
2022-07-25T05:14:43.899Z,65.41
2022-07-25T05:15:43.889Z,65.47
2022-07-25T05:16:43.982Z,65.50
2022-07-25T05:17:43.878Z,65.61
2022-07-25T05:18:43.859Z,65.08
2022-07-25T05:19:43.824Z,65.67
2022-07-25T05:20:43.809Z,65.91
2022-07-25T05:21:43.820Z,64.87
2022-07-25T05:22:43.805Z,65.17
2022-07-25T05:23:43.785Z,64.67
2022-07-25T05:24:43.749Z,64.48
2022-07-25T05:25:43.736Z,64.67
2022-07-25T05:26:43.720Z,64.58
2022-07-25T05:27:43.710Z,65.37
2022-07-25T05:28:43.705Z,65.37
2022-07-25T05:29:43.673Z,65.08
2022-07-25T05:30:43.671Z,64.87
2022-07-25T05:31:43.702Z,64.58
2022-07-25T05:32:43.628Z,64.58
2022-07-25T05:33:43.638Z,65.57
2022-07-25T05:34:43.622Z,65.27
2022-07-25T05:35:43.588Z,65.37
2022-07-25T05:36:47.146Z,65.57
2022-07-25T05:37:43.550Z,65.08
2022-07-25T05:38:43.561Z,64.97
2022-07-25T05:39:43.523Z,64.97
2022-07-25T05:40:43.518Z,65.47
2022-07-25T05:41:43.494Z,65.37
2022-07-25T05:42:43.511Z,65.37
2022-07-25T05:43:43.533Z,65.17
2022-07-25T05:44:43.524Z,65.54
2022-07-25T05:45:43.503Z,65.44
2022-07-25T05:46:43.556Z,64.54
2022-07-25T05:47:43.409Z,64.75
2022-07-25T05:48:43.453Z,65.24
2022-07-25T05:49:43.374Z,65.14
2022-07-25T05:50:43.367Z,65.74
2022-07-25T05:51:43.367Z,64.75
2022-07-25T05:52:43.333Z,65.14
2022-07-25T05:53:43.343Z,64.64
2022-07-25T05:54:43.301Z,64.75
2022-07-25T05:55:43.288Z,65.21
2022-07-25T06:09:50.153Z,63.49
2022-07-25T06:10:50.120Z,63.89
2022-07-25T06:11:58.132Z,63.59
2022-07-25T06:12:50.106Z,63.39
2022-07-25T06:13:50.073Z,64.36
2022-07-25T06:14:50.116Z,63.49
2022-07-25T06:15:50.114Z,63.39
2022-07-25T06:16:50.070Z,63.46
2022-07-25T06:17:50.073Z,63.66
2022-07-25T06:18:50.011Z,63.56
2022-07-25T06:19:49.984Z,63.46
2022-07-25T06:20:49.974Z,62.83
2022-07-25T06:21:49.958Z,63.13
2022-07-25T06:22:49.937Z,62.73
2022-07-25T06:23:49.951Z,63.43
2022-07-25T06:24:49.906Z,62.34
2022-07-25T06:25:50.276Z,62.43
2022-07-25T06:26:49.878Z,61.74
2022-07-25T06:27:49.867Z,61.44
2022-07-25T06:28:49.871Z,61.51
2022-07-25T06:29:49.841Z,61.61
2022-07-25T06:30:49.841Z,61.71
2022-07-25T06:31:49.869Z,60.61
2022-07-25T06:32:49.798Z,60.42
2022-07-25T06:33:49.780Z,61.21
2022-07-25T06:34:49.777Z,60.88
2022-07-25T06:35:49.753Z,61.01
2022-07-25T06:36:49.740Z,60.58
2022-07-25T06:37:49.724Z,60.58
2022-07-25T06:38:49.704Z,60.88
2022-07-25T06:39:49.711Z,60.69
2022-07-25T06:40:49.679Z,60.78
2022-07-25T06:41:49.665Z,60.91
2022-07-25T06:42:49.652Z,60.82
2022-07-25T06:43:49.639Z,60.31
2022-07-25T06:44:49.641Z,61.28
2022-07-25T06:45:49.634Z,60.91
2022-07-25T06:46:50.180Z,60.78
2022-07-25T06:47:49.579Z,60.98
2022-07-25T06:48:49.640Z,61.08
2022-07-25T06:49:49.552Z,60.56
2022-07-25T06:50:49.551Z,61.08
2022-07-25T06:51:49.540Z,60.58
2022-07-25T06:52:49.511Z,60.85
2022-07-25T06:53:49.493Z,60.49
2022-07-25T06:54:49.508Z,60.85
2022-07-25T06:55:49.486Z,60.46
2022-07-25T06:56:49.461Z,60.36
2022-07-25T06:57:49.439Z,60.85
2022-07-25T06:58:49.426Z,61.15
2022-07-25T06:59:49.412Z,60.85
2022-07-25T07:00:49.468Z,60.96
2022-07-25T07:01:51.671Z,60.66
2022-07-25T07:02:49.390Z,60.46
2022-07-25T07:03:49.413Z,60.85
2022-07-25T07:04:49.347Z,60.83
2022-07-25T07:05:49.329Z,60.56
2022-07-25T07:06:49.321Z,60.66
2022-07-25T07:07:49.317Z,60.66
2022-07-25T07:08:49.293Z,60.83
2022-07-25T07:11:31.554Z,60.93
2022-07-25T07:12:31.564Z,60.93
2022-07-25T07:13:31.610Z,61.22
2022-07-25T07:14:31.512Z,62.21
2022-07-25T07:15:31.477Z,62.58
2022-07-25T07:16:31.567Z,61.69
2022-07-25T07:17:31.490Z,60.80
2022-07-25T07:18:31.440Z,60.77
2022-07-25T07:19:31.426Z,60.67
2022-07-25T07:20:31.437Z,62.15
2022-07-25T07:21:31.399Z,61.36
2022-07-25T07:22:31.385Z,60.54
2022-07-25T07:23:31.384Z,59.78
2022-07-25T07:24:31.363Z,60.34
2022-07-25T07:25:31.369Z,60.27
2022-07-25T07:26:31.336Z,61.23
2022-07-25T07:27:31.320Z,60.94
2022-07-25T07:28:31.309Z,61.43
2022-07-25T07:29:31.298Z,60.71
2022-07-25T07:30:58.307Z,60.41
2022-07-25T07:31:31.374Z,61.57
2022-07-25T07:32:31.270Z,61.07
2022-07-25T07:33:31.241Z,59.99
2022-07-25T07:34:31.239Z,59.95
2022-07-25T07:35:31.241Z,60.25
2022-07-25T07:36:31.207Z,60.85
2022-07-25T07:37:35.861Z,59.86
2022-07-25T07:38:31.179Z,59.36
2022-07-25T07:39:31.164Z,60.06
2022-07-25T07:40:31.175Z,60.16
2022-07-25T07:41:31.134Z,59.27
2022-07-25T07:42:31.141Z,59.95
2022-07-25T07:43:31.109Z,59.36
2022-07-25T07:44:31.098Z,60.06
2022-07-25T07:45:31.082Z,60.35
2022-07-25T07:46:31.184Z,60.35
2022-07-25T07:47:31.060Z,60.65
2022-07-25T07:48:31.279Z,60.55
2022-07-25T07:49:31.034Z,60.55
2022-07-25T07:50:31.021Z,58.18
2022-07-25T07:51:31.007Z,57.78
2022-07-25T07:52:30.998Z,57.68
2022-07-25T07:53:31.010Z,57.16
2022-07-25T07:54:30.970Z,56.40
2022-07-25T07:55:30.952Z,57.16
2022-07-25T07:56:30.941Z,55.87
2022-07-25T07:57:30.927Z,55.68
2022-07-25T07:58:30.914Z,55.97
2022-07-25T07:59:30.954Z,55.68
2022-07-25T08:00:30.894Z,55.87
2022-07-25T08:01:30.924Z,55.58
2022-07-25T08:02:30.931Z,55.68
2022-07-25T08:03:30.851Z,56.17
2022-07-25T08:04:30.837Z,56.17
2022-07-25T08:05:30.846Z,54.79
2022-07-25T08:06:30.821Z,54.79
2022-07-25T08:07:30.798Z,55.38
2022-07-25T08:08:31.679Z,54.19
2022-07-25T08:09:30.781Z,55.47
2022-07-25T08:10:30.761Z,55.47
2022-07-25T08:11:30.766Z,55.38
2022-07-25T08:12:30.743Z,54.71
2022-07-25T08:13:30.834Z,54.02
2022-07-25T08:14:30.709Z,55.60
2022-07-25T08:15:30.697Z,55.97
2022-07-25T08:16:30.794Z,55.70
2022-07-25T08:17:30.671Z,55.11
2022-07-25T08:18:30.673Z,55.70
2022-07-25T08:19:30.648Z,56.10
2022-07-25T08:20:38.710Z,55.41
2022-07-25T08:21:30.638Z,55.60
2022-07-25T08:22:30.611Z,55.13
2022-07-25T08:23:30.596Z,55.53
2022-07-25T08:24:30.577Z,55.73
2022-07-25T08:25:30.572Z,56.82
2022-07-25T08:26:30.578Z,55.33
2022-07-25T08:27:30.547Z,56.02
2022-07-25T08:28:30.538Z,57.41
2022-07-25T08:29:30.519Z,57.31
2022-07-25T08:30:30.506Z,56.05
2022-07-25T08:31:30.557Z,56.85
2022-07-25T08:32:30.495Z,56.55
2022-07-25T08:33:30.497Z,56.65
2022-07-25T08:34:30.451Z,55.66
2022-07-25T08:35:30.454Z,56.95
2022-07-25T08:36:34.596Z,57.54
2022-07-25T08:37:30.417Z,56.95
2022-07-25T08:38:30.420Z,57.64
2022-07-25T08:39:30.399Z,57.07
2022-07-25T08:40:30.378Z,57.46
2022-07-25T08:41:30.366Z,57.76
2022-07-25T08:42:30.352Z,56.77
2022-07-25T08:43:30.349Z,57.76
2022-07-25T08:44:30.323Z,58.06
2022-07-25T08:45:30.309Z,57.27
2022-07-25T08:46:30.430Z,57.57
2022-07-25T08:47:30.281Z,57.79
2022-07-25T08:48:30.400Z,58.19
2022-07-25T08:49:30.257Z,58.88
2022-07-25T08:50:30.251Z,58.29
2022-07-25T08:51:30.249Z,59.48
2022-07-25T08:52:30.234Z,58.75
2022-07-25T08:53:33.251Z,58.13
2022-07-25T08:54:30.216Z,57.74
2022-07-25T08:55:30.197Z,57.41
2022-07-25T08:56:30.165Z,57.78
2022-07-25T08:57:30.154Z,57.18
2022-07-25T08:58:30.149Z,55.90
2022-07-25T08:59:30.153Z,57.29
2022-07-25T09:00:30.133Z,56.99
2022-07-25T09:01:34.574Z,56.20
2022-07-25T09:02:30.218Z,56.79
2022-07-25T09:03:30.074Z,56.79
2022-07-25T09:04:30.067Z,57.58
2022-07-25T09:05:30.077Z,57.16
2022-07-25T09:06:30.049Z,56.67
2022-07-25T09:07:30.023Z,56.86
2022-07-25T09:08:30.015Z,56.44
2022-07-25T09:09:30.002Z,56.14
2022-07-25T09:10:30.011Z,55.94
2022-07-25T09:11:30.034Z,55.94
2022-07-25T09:12:29.962Z,57.10
2022-07-25T09:13:29.950Z,55.65
2022-07-25T09:14:29.938Z,56.51
2022-07-25T09:15:29.971Z,57.01
2022-07-25T09:16:29.947Z,55.69
2022-07-25T09:17:29.929Z,55.62
2022-07-25T09:18:29.888Z,55.43
2022-07-25T09:19:29.877Z,56.21
2022-07-25T09:20:29.858Z,56.21
2022-07-25T09:21:29.871Z,55.72
2022-07-25T09:22:29.866Z,57.28
2022-07-25T09:23:29.828Z,55.69
2022-07-25T09:24:29.806Z,56.56
2022-07-25T09:25:29.803Z,56.06
2022-07-25T09:26:29.783Z,56.06
2022-07-25T09:27:29.795Z,56.56
2022-07-25T09:28:29.778Z,56.98
2022-07-25T09:29:29.752Z,56.58
2022-07-25T09:30:29.740Z,58.16
2022-07-25T09:31:29.799Z,57.18
2022-07-25T09:32:29.731Z,56.78
2022-07-25T09:33:29.703Z,56.61
2022-07-25T09:34:29.692Z,57.10
2022-07-25T09:35:29.679Z,56.71
2022-07-25T09:36:29.679Z,58.02
2022-07-25T09:37:29.678Z,57.20
2022-07-25T09:38:29.643Z,57.89
2022-07-25T09:39:29.634Z,56.93
2022-07-25T09:40:32.138Z,57.33
2022-07-25T09:41:29.628Z,57.13
2022-07-25T09:42:29.594Z,57.01
2022-07-25T09:43:29.585Z,55.43
2022-07-25T09:44:29.606Z,52.88
2022-07-25T09:45:31.579Z,54.27
2022-07-25T09:46:29.589Z,55.87
2022-07-25T09:47:29.537Z,54.76
2022-07-25T09:48:29.559Z,54.39
2022-07-25T09:49:29.513Z,53.89
2022-07-25T09:50:29.527Z,55.18
2022-07-25T09:51:29.489Z,54.52
2022-07-25T09:52:29.482Z,54.22
2022-07-25T09:53:29.471Z,53.72
2022-07-25T09:54:29.451Z,55.33
2022-07-25T09:55:29.457Z,55.51
2022-07-25T09:56:29.434Z,55.53
2022-07-25T09:57:29.414Z,54.07
2022-07-25T09:58:29.402Z,54.44
2022-07-25T09:59:29.390Z,55.36
2022-07-25T10:00:29.443Z,54.27
2022-07-25T10:01:29.407Z,55.36
2022-07-25T10:02:29.397Z,54.96
2022-07-25T10:03:29.339Z,55.76
2022-07-25T10:04:29.337Z,54.17
2022-07-25T10:05:29.316Z,54.47
2022-07-25T10:06:29.322Z,54.14
2022-07-25T10:07:31.555Z,54.27
2022-07-25T10:08:29.279Z,55.24
2022-07-25T10:09:29.269Z,54.35
2022-07-25T10:10:29.268Z,54.05
2022-07-25T10:11:29.240Z,53.95
2022-07-25T10:12:29.227Z,53.06
2022-07-25T10:13:29.219Z,54.44
2022-07-25T10:14:29.219Z,54.24
2022-07-25T10:15:29.198Z,55.83
2022-07-25T10:16:29.211Z,55.70
2022-07-25T10:17:29.176Z,55.11
2022-07-25T10:18:29.170Z,56.89
2022-07-25T10:19:29.143Z,54.52
2022-07-25T10:20:29.145Z,53.33
2022-07-25T10:21:29.235Z,53.82
2022-07-25T10:22:53.759Z,53.92
2022-07-25T10:23:29.103Z,54.27
2022-07-25T10:24:29.098Z,54.96
2022-07-25T10:25:29.078Z,55.16
2022-07-25T10:26:29.064Z,55.73
2022-07-25T10:27:29.042Z,54.42
2022-07-25T10:28:29.044Z,54.96
2022-07-25T10:29:29.028Z,53.45
2022-07-25T10:30:29.070Z,51.62
2022-07-25T10:31:29.040Z,50.61
2022-07-25T10:32:28.979Z,49.50
2022-07-25T10:33:28.974Z,53.02
2022-07-25T10:34:28.972Z,52.48
2022-07-25T10:35:28.947Z,51.07
2022-07-25T10:36:28.941Z,49.50
2022-07-25T10:37:28.935Z,49.23
2022-07-25T10:38:28.926Z,49.65
2022-07-25T10:39:28.927Z,49.57
2022-07-25T10:40:28.909Z,49.69
2022-07-25T10:41:28.891Z,49.33
2022-07-25T10:42:28.877Z,49.01
2022-07-25T10:43:28.859Z,51.42
2022-07-25T10:44:28.856Z,49.73
2022-07-25T10:45:28.861Z,49.68
2022-07-25T10:46:28.884Z,50.07
2022-07-25T10:47:28.821Z,49.87
2022-07-25T10:48:28.940Z,48.20
2022-07-25T10:49:32.318Z,47.71
2022-07-25T10:50:53.543Z,47.63
2022-07-25T10:51:28.811Z,48.61
2022-07-25T10:52:28.772Z,49.04
2022-07-25T10:53:28.762Z,48.96
2022-07-25T10:54:28.757Z,49.65
2022-07-25T10:55:28.749Z,50.24
2022-07-25T10:56:28.743Z,51.69
2022-07-25T10:57:31.897Z,50.61
2022-07-25T10:58:28.721Z,50.90
2022-07-25T10:59:28.725Z,47.66
2022-07-25T11:00:28.698Z,48.69
2022-07-25T11:01:28.794Z,47.82
2022-07-25T11:02:28.706Z,48.12
2022-07-25T11:03:28.664Z,48.44
2022-07-25T11:04:28.664Z,49.33
2022-07-25T11:05:28.672Z,49.03
2022-07-25T11:06:28.675Z,51.00
2022-07-25T11:07:28.653Z,48.36
2022-07-25T11:08:28.625Z,48.88
2022-07-25T11:09:28.717Z,49.40
2022-07-25T11:10:28.597Z,50.09
2022-07-25T11:11:28.586Z,49.79
2022-07-25T11:12:28.578Z,51.70
2022-07-25T11:13:28.583Z,51.67
2022-07-25T11:14:28.554Z,51.67
2022-07-25T11:15:28.545Z,50.38
2022-07-25T11:16:28.558Z,50.98
2022-07-25T11:17:28.528Z,51.75
2022-07-25T11:18:28.533Z,51.75
2022-07-25T11:19:28.500Z,48.90
2022-07-25T11:20:28.514Z,49.79
2022-07-25T11:21:28.487Z,50.78
2022-07-25T11:22:28.463Z,49.87
2022-07-25T11:23:28.476Z,51.75
2022-07-25T11:24:28.463Z,50.56
2022-07-25T11:25:28.437Z,51.62
2022-07-25T11:26:28.416Z,51.00
2022-07-25T11:27:28.429Z,50.63
2022-07-25T11:28:28.415Z,48.81
2022-07-25T11:29:28.387Z,51.03
2022-07-25T11:30:28.377Z,51.20
2022-07-25T11:31:28.443Z,49.73
2022-07-25T11:32:28.412Z,49.82
2022-07-25T11:33:28.342Z,49.13
2022-07-25T11:34:28.359Z,48.83
2022-07-25T11:35:28.342Z,49.35
2022-07-25T11:36:28.308Z,48.54
2022-07-25T11:37:28.300Z,49.23
2022-07-25T11:38:28.288Z,49.23
2022-07-25T11:39:28.298Z,49.62
2022-07-25T11:40:28.270Z,52.97
2022-07-25T11:41:28.258Z,49.52
2022-07-25T11:42:28.247Z,50.81
2022-07-25T11:43:28.236Z,50.98
2022-07-25T11:44:28.255Z,50.66
2022-07-25T11:45:28.247Z,50.24
2022-07-25T11:46:28.238Z,49.70
2022-07-25T11:47:28.234Z,48.15
2022-07-25T11:48:28.237Z,48.33
2022-07-25T11:49:28.175Z,49.41
2022-07-25T11:50:28.196Z,48.15
2022-07-25T11:51:28.156Z,46.68
2022-07-25T11:52:28.144Z,46.88
2022-07-25T11:53:28.134Z,47.09
2022-07-25T11:54:28.127Z,49.04
2022-07-25T11:55:28.117Z,46.21
2022-07-25T11:56:43.918Z,48.05
2022-07-25T11:57:28.096Z,49.26
2022-07-25T11:58:28.094Z,50.07
2022-07-25T11:59:28.072Z,50.46
2022-07-25T12:00:28.096Z,52.06
2022-07-25T12:01:28.056Z,52.26
2022-07-25T12:02:28.233Z,51.64
2022-07-25T12:03:28.106Z,51.87
2022-07-25T12:04:28.025Z,53.02
2022-07-25T12:05:28.017Z,52.14
2022-07-25T12:06:28.032Z,51.54
2022-07-25T12:07:28.002Z,52.73
2022-07-25T12:08:27.982Z,53.32
2022-07-25T12:09:27.975Z,53.61
2022-07-25T12:10:27.967Z,53.99
2022-07-25T12:11:27.985Z,54.38
2022-07-25T12:12:27.958Z,52.53
2022-07-25T12:13:27.934Z,53.13
2022-07-25T12:14:32.313Z,53.32
2022-07-25T12:15:27.910Z,53.22
2022-07-25T12:16:27.953Z,55.29
2022-07-25T12:17:27.912Z,53.61
2022-07-25T12:18:27.879Z,54.60
2022-07-25T12:19:27.869Z,55.66
2022-07-25T12:20:27.858Z,54.90
2022-07-25T12:21:27.857Z,53.52
2022-07-25T12:22:27.842Z,53.44
2022-07-25T12:23:27.837Z,54.43
2022-07-25T12:24:27.826Z,53.61
2022-07-25T12:25:31.003Z,54.50
2022-07-25T12:26:27.792Z,54.23
2022-07-25T12:27:27.776Z,53.64
2022-07-25T12:28:27.788Z,53.74
2022-07-25T12:29:27.756Z,53.30
2022-07-25T12:30:27.846Z,54.88
2022-07-25T12:31:27.787Z,55.27
2022-07-25T12:32:27.725Z,55.18
2022-07-25T12:33:27.719Z,57.05
2022-07-25T12:34:27.723Z,54.58
2022-07-25T12:35:27.696Z,55.27
2022-07-25T12:36:27.681Z,55.07
2022-07-25T12:37:27.674Z,55.49
2022-07-25T12:38:27.658Z,55.27
2022-07-25T12:39:27.667Z,53.84
2022-07-25T12:40:27.636Z,54.03
2022-07-25T12:43:09.677Z,54.50
2022-07-25T12:44:09.672Z,55.16
2022-07-25T12:45:09.674Z,54.97
2022-07-25T12:46:09.726Z,54.68
2022-07-25T12:47:09.631Z,54.18
2022-07-25T12:48:09.622Z,55.46
2022-07-25T12:49:10.102Z,55.24
2022-07-25T12:50:09.613Z,54.91
2022-07-25T12:51:09.629Z,54.22
2022-07-25T12:52:09.573Z,53.54
2022-07-25T12:53:09.566Z,54.03
2022-07-25T12:54:10.066Z,55.41
2022-07-25T12:55:09.546Z,55.01
2022-07-25T12:56:09.561Z,55.38
2022-07-25T12:57:09.522Z,54.00
2022-07-25T12:58:09.515Z,52.53
2022-07-25T12:59:09.849Z,53.02
2022-07-25T13:00:09.489Z,52.70
2022-07-25T13:01:09.565Z,53.58
2022-07-25T13:02:09.566Z,52.03
2022-07-25T13:03:09.475Z,53.68
2022-07-25T13:04:09.456Z,51.62
2022-07-25T13:05:09.441Z,52.62
2022-07-25T13:06:09.426Z,52.53
2022-07-25T13:07:09.413Z,51.74
2022-07-25T13:08:09.430Z,53.12
2022-07-25T13:09:09.944Z,51.22